createdAt,value
2023-05-03T00:00:23.436Z,100093.75
2023-05-03T00:02:54.853Z,100091.47
2023-05-03T00:05:23.060Z,100088.38
2023-05-03T00:07:54.220Z,100102.69
2023-05-03T00:10:22.506Z,100090.28
2023-05-03T00:12:52.754Z,100100.50
2023-05-03T00:15:24.368Z,100092.25
2023-05-03T00:17:53.548Z,100091.38
2023-05-03T00:20:23.225Z,100091.53
2023-05-03T00:22:53.990Z,100093.53
2023-05-03T00:25:22.234Z,100093.22
2023-05-03T00:27:50.433Z,100092.41
2023-05-03T00:30:21.931Z,100107.50
2023-05-03T00:32:51.700Z,100103.75
2023-05-03T00:35:23.680Z,100091.31
2023-05-03T00:37:51.802Z,100096.19
2023-05-03T00:40:24.851Z,100081.09
2023-05-03T00:42:56.327Z,100074.13
2023-05-03T00:45:40.070Z,100093.59
2023-05-03T00:48:11.163Z,100089.34
2023-05-03T00:50:40.898Z,100089.34
2023-05-03T00:53:09.411Z,100083.03
2023-05-03T00:55:39.844Z,100086.72
2023-05-03T00:58:07.977Z,100081.50
2023-05-03T01:00:39.766Z,100086.16
2023-05-03T01:03:08.396Z,100079.84
2023-05-03T01:05:47.753Z,100096.06
2023-05-03T01:08:22.338Z,100077.38
2023-05-03T01:11:05.106Z,100091.16
2023-05-03T01:13:43.936Z,100086.06
2023-05-03T01:16:33.334Z,100078.81
2023-05-03T01:19:05.292Z,100079.09
2023-05-03T01:21:42.998Z,100076.28
2023-05-03T01:24:17.426Z,100081.38
2023-05-03T01:26:49.751Z,100082.69
2023-05-03T01:29:18.681Z,100073.94
2023-05-03T01:31:56.044Z,100085.06
2023-05-03T01:34:35.986Z,100083.31
2023-05-03T01:37:13.552Z,100087.84
2023-05-03T01:39:47.538Z,100065.88
2023-05-03T01:42:28.666Z,100086.16
2023-05-03T01:44:57.914Z,100071.31
2023-05-03T01:47:27.268Z,100087.28
2023-05-03T01:49:55.423Z,100077.16
2023-05-03T01:52:30.626Z,100076.09
2023-05-03T01:55:08.445Z,100075.50
2023-05-03T01:57:42.202Z,100089.63
2023-05-03T02:00:24.819Z,100079.69
2023-05-03T02:02:59.357Z,100076.53
2023-05-03T02:05:30.136Z,100085.31
2023-05-03T02:07:59.469Z,100080.66
2023-05-03T02:10:29.836Z,100085.28
2023-05-03T02:13:04.018Z,100082.13
2023-05-03T02:15:33.485Z,100092.16
2023-05-03T02:18:04.054Z,100097.47
2023-05-03T02:20:36.571Z,100084.28
2023-05-03T02:23:06.477Z,100087.34
2023-05-03T02:25:39.906Z,100084.34
2023-05-03T02:28:13.412Z,100087.81
2023-05-03T02:30:45.834Z,100080.00
2023-05-03T02:33:17.768Z,100086.88
2023-05-03T02:35:46.538Z,100090.94
2023-05-03T02:38:20.462Z,100091.38
2023-05-03T02:40:49.776Z,100101.50
2023-05-03T02:43:21.762Z,100088.63
2023-05-03T02:45:52.785Z,100089.47
2023-05-03T02:48:28.307Z,100104.03
2023-05-03T02:50:57.577Z,100086.94
2023-05-03T02:53:28.402Z,100093.41
2023-05-03T02:56:11.285Z,100099.91
2023-05-03T02:58:44.818Z,100085.06
2023-05-03T03:01:16.253Z,100082.78
2023-05-03T03:03:51.974Z,100072.69
2023-05-03T03:06:37.963Z,100086.44
2023-05-03T03:09:08.871Z,100084.56
2023-05-03T03:11:39.599Z,100073.13
2023-05-03T03:14:19.488Z,100091.94
2023-05-03T03:16:51.216Z,100074.56
2023-05-03T03:19:23.564Z,100084.50
2023-05-03T03:21:57.148Z,100071.78
2023-05-03T03:24:29.704Z,100090.50
2023-05-03T03:27:03.928Z,100084.63
2023-05-03T03:29:46.824Z,100097.91
2023-05-03T03:32:24.724Z,100092.16
2023-05-03T03:34:55.452Z,100104.19
2023-05-03T03:37:23.723Z,100104.19
2023-05-03T03:39:54.100Z,100113.63
2023-05-03T03:42:25.884Z,100112.16
2023-05-03T03:44:56.007Z,100102.03
2023-05-03T03:47:24.432Z,100105.06
2023-05-03T03:49:57.740Z,100111.69
2023-05-03T03:52:34.421Z,100102.66
2023-05-03T03:55:12.257Z,100108.28
2023-05-03T03:57:47.366Z,100111.69
2023-05-03T04:00:19.980Z,100110.00
2023-05-03T04:02:57.590Z,100120.69
2023-05-03T04:05:30.700Z,100116.66
2023-05-03T04:08:01.727Z,100117.38
2023-05-03T04:10:32.358Z,100110.28
2023-05-03T04:13:04.279Z,100120.41
2023-05-03T04:15:36.573Z,100123.47
2023-05-03T04:18:21.619Z,100121.28
2023-05-03T04:20:52.748Z,100135.28
2023-05-03T04:23:23.471Z,100135.28
2023-05-03T04:25:56.039Z,100137.34
2023-05-03T04:28:29.720Z,100133.22
2023-05-03T04:31:04.551Z,100140.03
2023-05-03T04:33:38.092Z,100149.66
2023-05-03T04:36:10.886Z,100147.75
2023-05-03T04:38:43.559Z,100152.59
2023-05-03T04:41:16.114Z,100153.38
2023-05-03T04:43:50.277Z,100154.47
2023-05-03T04:46:26.645Z,100158.53
2023-05-03T04:49:05.562Z,100160.53
2023-05-03T04:51:35.701Z,100168.59
2023-05-03T04:54:18.343Z,100177.44
2023-05-03T04:56:55.265Z,100174.91
2023-05-03T04:59:27.761Z,100170.44
2023-05-03T05:02:03.918Z,100181.69
2023-05-03T05:04:35.037Z,100181.91
2023-05-03T05:07:06.152Z,100188.91
2023-05-03T05:09:39.201Z,100179.72
2023-05-03T05:12:11.295Z,100188.97
2023-05-03T05:14:43.688Z,100193.22
2023-05-03T05:17:15.033Z,100185.88
2023-05-03T05:19:46.444Z,100193.22
2023-05-03T05:22:17.222Z,100197.78
2023-05-03T05:24:55.779Z,100191.81
2023-05-03T05:27:27.095Z,100196.03
2023-05-03T05:29:58.909Z,100200.38
2023-05-03T05:32:36.628Z,100185.75
2023-05-03T05:35:09.801Z,100197.94
2023-05-03T05:37:41.021Z,100199.25
2023-05-03T05:40:18.402Z,100201.97
2023-05-03T05:42:54.250Z,100206.75
2023-05-03T05:45:27.994Z,100202.16
2023-05-03T05:48:13.294Z,100211.19
2023-05-03T05:50:44.496Z,100223.47
2023-05-03T05:53:23.842Z,100216.22
2023-05-03T05:55:59.183Z,100229.94
2023-05-03T05:58:31.648Z,100230.25
2023-05-03T06:01:06.091Z,100226.25
2023-05-03T06:03:43.157Z,100230.53
2023-05-03T06:06:17.498Z,100232.44
2023-05-03T06:08:50.168Z,100226.69
2023-05-03T06:11:22.017Z,100228.75
2023-05-03T06:13:52.513Z,100233.81
2023-05-03T06:16:22.273Z,100238.91
2023-05-03T06:18:56.070Z,100237.22
2023-05-03T06:21:33.702Z,100239.94
2023-05-03T06:24:06.374Z,100241.53
2023-05-03T06:26:36.435Z,100250.78
2023-05-03T06:29:07.808Z,100241.50
2023-05-03T06:31:37.208Z,100250.44
2023-05-03T06:34:11.187Z,100248.03
2023-05-03T06:36:50.599Z,100251.44
2023-05-03T06:39:28.288Z,100239.41
2023-05-03T06:42:01.311Z,100257.66
2023-05-03T06:44:37.498Z,100249.41
2023-05-03T06:47:12.253Z,100257.34
2023-05-03T06:49:45.130Z,100256.25
2023-05-03T06:52:17.222Z,100253.44
2023-05-03T06:54:52.973Z,100258.59
2023-05-03T06:57:23.016Z,100254.63
2023-05-03T06:59:54.948Z,100252.53
2023-05-03T07:02:24.253Z,100254.31
2023-05-03T07:05:01.403Z,100258.72
2023-05-03T07:07:29.957Z,100256.38
2023-05-03T07:09:59.233Z,100258.56
2023-05-03T07:12:30.004Z,100254.63
2023-05-03T07:15:02.710Z,100253.97
2023-05-03T07:17:31.589Z,100256.38
2023-05-03T07:20:15.044Z,100254.34
2023-05-03T07:22:44.678Z,100254.03
2023-05-03T07:25:17.741Z,100264.13
2023-05-03T07:27:48.625Z,100250.41
2023-05-03T07:30:28.414Z,100251.56
2023-05-03T07:32:56.941Z,100253.13
2023-05-03T07:35:30.605Z,100258.06
2023-05-03T07:38:01.837Z,100260.16
2023-05-03T07:40:33.408Z,100262.13
2023-05-03T07:43:03.022Z,100269.38
2023-05-03T07:45:35.041Z,100265.59
2023-05-03T07:48:04.339Z,100276.34
2023-05-03T07:50:37.955Z,100272.81
2023-05-03T07:53:07.207Z,100272.06
2023-05-03T07:55:46.584Z,100265.22
2023-05-03T07:58:31.432Z,100275.66
2023-05-03T08:01:11.251Z,100277.88
2023-05-03T08:03:44.521Z,100269.38
2023-05-03T08:06:15.485Z,100268.22
2023-05-03T08:08:44.285Z,100277.44
2023-05-03T08:11:24.294Z,100281.25
2023-05-03T08:13:55.584Z,100282.25
2023-05-03T08:16:24.173Z,100277.28
2023-05-03T08:18:56.065Z,100273.66
2023-05-03T08:21:35.770Z,100279.34
2023-05-03T08:24:06.407Z,100272.06
2023-05-03T08:26:48.537Z,100287.47
2023-05-03T08:29:17.214Z,100274.53
2023-05-03T08:31:47.348Z,100285.56
2023-05-03T08:34:20.219Z,100286.16
2023-05-03T08:36:55.214Z,100282.97
2023-05-03T08:39:24.572Z,100280.59
2023-05-03T08:41:59.670Z,100284.59
2023-05-03T08:44:31.123Z,100296.13
2023-05-03T08:47:00.739Z,100272.66
2023-05-03T08:49:30.044Z,100278.22
2023-05-03T08:52:01.620Z,100280.22
2023-05-03T08:54:30.407Z,100284.06
2023-05-03T08:57:00.624Z,100276.25
2023-05-03T08:59:37.287Z,100287.91
2023-05-03T09:02:15.395Z,100281.78
2023-05-03T09:04:53.575Z,100272.91
2023-05-03T09:07:26.720Z,100281.16
2023-05-03T09:09:55.097Z,100281.16
2023-05-03T09:12:43.995Z,100285.25
2023-05-03T09:15:22.898Z,100281.72
2023-05-03T09:18:09.617Z,100292.66
2023-05-03T09:20:52.203Z,100284.78
2023-05-03T09:23:36.805Z,100292.59
2023-05-03T09:26:07.850Z,100272.59
2023-05-03T09:28:43.083Z,100275.50
2023-05-03T09:31:14.858Z,100270.06
2023-05-03T09:33:44.830Z,100271.41
2023-05-03T09:36:16.802Z,100270.78
2023-05-03T09:38:56.073Z,100271.19
2023-05-03T09:41:41.520Z,100260.13
2023-05-03T09:44:12.470Z,100267.22
2023-05-03T09:47:06.165Z,100260.25
2023-05-03T09:49:46.000Z,100256.91
2023-05-03T09:52:14.844Z,100261.22
2023-05-03T09:55:01.844Z,100255.06
2023-05-03T09:57:32.784Z,100255.75
2023-05-03T10:00:01.120Z,100246.47
2023-05-03T10:02:35.317Z,100250.00
2023-05-03T10:05:07.014Z,100245.44
2023-05-03T10:07:40.444Z,100243.75
2023-05-03T10:10:11.137Z,100242.75
2023-05-03T10:12:45.206Z,100230.63
2023-05-03T10:15:16.196Z,100233.72
2023-05-03T10:17:48.725Z,100231.00
2023-05-03T10:20:28.889Z,100237.56
2023-05-03T10:23:11.383Z,100233.69
2023-05-03T10:26:21.527Z,100223.88
2023-05-03T10:28:50.441Z,100224.63
2023-05-03T10:31:48.063Z,100227.44
2023-05-03T10:34:31.172Z,100229.31
2023-05-03T10:37:03.294Z,100214.59
2023-05-03T10:39:36.955Z,100215.16
2023-05-03T10:42:10.947Z,100210.88
2023-05-03T10:44:50.726Z,100207.19
2023-05-03T10:47:23.103Z,100224.00
2023-05-03T10:50:29.944Z,100219.56
2023-05-03T10:53:10.008Z,100212.19
2023-05-03T10:55:38.882Z,100214.13
2023-05-03T10:58:15.164Z,100228.38
2023-05-03T11:00:52.843Z,100222.47
2023-05-03T11:03:39.113Z,100225.75
2023-05-03T11:06:10.536Z,100211.94
2023-05-03T11:08:43.692Z,100217.31
2023-05-03T11:11:13.392Z,100220.19
2023-05-03T11:13:47.687Z,100217.41
2023-05-03T11:16:19.177Z,100204.09
2023-05-03T11:18:54.416Z,100216.56
2023-05-03T11:21:32.220Z,100218.94
2023-05-03T11:24:06.057Z,100220.13
2023-05-03T11:26:39.438Z,100213.09
2023-05-03T11:29:18.805Z,100214.59
2023-05-03T11:31:47.281Z,100221.72
2023-05-03T11:34:19.468Z,100224.22
2023-05-03T11:36:49.515Z,100224.88
2023-05-03T11:39:20.928Z,100213.81
2023-05-03T11:42:06.916Z,100211.78
2023-05-03T11:44:38.978Z,100205.97
2023-05-03T11:47:08.635Z,100211.16
2023-05-03T11:49:47.703Z,100214.50
2023-05-03T11:52:26.143Z,100214.97
2023-05-03T11:54:58.006Z,100212.84
2023-05-03T11:57:27.494Z,100216.63
2023-05-03T12:00:14.938Z,100216.09
2023-05-03T12:02:51.253Z,100216.16
2023-05-03T12:07:53.609Z,100215.84
2023-05-03T12:10:26.482Z,100209.97
2023-05-03T12:13:00.770Z,100210.97
2023-05-03T12:15:41.153Z,100210.03
2023-05-03T12:18:18.047Z,100214.03
2023-05-03T12:21:28.344Z,100215.69
2023-05-03T12:23:55.994Z,100210.22
2023-05-03T12:26:28.710Z,100214.38
2023-05-03T12:29:02.354Z,100207.50
2023-05-03T12:31:44.828Z,100202.25
2023-05-03T12:34:32.788Z,100209.06
2023-05-03T12:37:11.938Z,100212.56
2023-05-03T12:39:58.705Z,100208.38
2023-05-03T12:42:43.346Z,100198.81
2023-05-03T12:45:23.646Z,100210.28
2023-05-03T12:47:57.746Z,100204.00
2023-05-03T12:50:39.570Z,100202.81
2023-05-03T12:53:18.690Z,100210.06
2023-05-03T12:55:51.409Z,100203.00
2023-05-03T13:03:42.979Z,100195.44
2023-05-03T13:06:18.492Z,100193.91
2023-05-03T13:08:50.313Z,100197.59
2023-05-03T13:11:20.340Z,100183.44
2023-05-03T13:13:50.233Z,100183.78
2023-05-03T13:16:19.841Z,100186.47
2023-05-03T13:18:57.780Z,100187.50
2023-05-03T13:21:28.525Z,100190.88
2023-05-03T13:23:59.438Z,100183.63
2023-05-03T13:26:36.527Z,100183.44
2023-05-03T13:29:10.075Z,100191.56
2023-05-03T13:31:39.466Z,100180.59
2023-05-03T13:34:11.403Z,100191.38
2023-05-03T13:36:44.686Z,100189.69
2023-05-03T13:39:13.646Z,100184.97
2023-05-03T13:41:51.104Z,100181.44
2023-05-03T13:44:25.446Z,100185.97
2023-05-03T13:46:55.689Z,100175.03
2023-05-03T13:49:48.985Z,100183.47
2023-05-03T13:52:24.397Z,100169.47
2023-05-03T13:54:55.081Z,100180.94
2023-05-03T13:57:29.716Z,100178.91
2023-05-03T13:59:59.551Z,100168.78
2023-05-03T14:02:29.745Z,100167.13
2023-05-03T14:05:01.763Z,100163.59
2023-05-03T14:07:30.806Z,100167.78
2023-05-03T14:10:00.126Z,100165.41
2023-05-03T14:12:38.853Z,100164.59
2023-05-03T14:15:11.090Z,100169.63
2023-05-03T14:17:43.696Z,100168.66
2023-05-03T14:20:20.064Z,100183.44
2023-05-03T14:22:53.489Z,100168.97
2023-05-03T14:25:23.787Z,100163.25
2023-05-03T14:27:59.023Z,100163.41
2023-05-03T14:30:28.265Z,100165.91
2023-05-03T14:33:01.461Z,100166.59
2023-05-03T14:35:32.210Z,100160.69
2023-05-03T14:38:01.006Z,100167.44
2023-05-03T14:40:29.454Z,100169.97
2023-05-03T14:43:08.365Z,100171.00
2023-05-03T14:45:44.362Z,100169.31
2023-05-03T14:48:22.695Z,100164.94
2023-05-03T14:51:02.051Z,100158.16
2023-05-03T14:53:45.902Z,100168.97
2023-05-03T14:56:19.321Z,100169.13
2023-05-03T14:58:53.859Z,100170.47
2023-05-03T15:01:26.547Z,100164.59
2023-05-03T15:04:01.519Z,100176.38
2023-05-03T15:06:41.293Z,100170.50
2023-05-03T15:09:13.201Z,100180.28
2023-05-03T15:11:45.696Z,100180.44
2023-05-03T15:14:18.258Z,100176.38
2023-05-03T15:16:54.694Z,100182.28
2023-05-03T15:19:24.087Z,100181.09
2023-05-03T15:22:00.158Z,100186.31
2023-05-03T15:24:29.319Z,100186.16
2023-05-03T15:27:06.441Z,100189.84
2023-05-03T15:29:37.943Z,100182.63
2023-05-03T15:32:07.685Z,100190.69
2023-05-03T15:34:43.470Z,100177.75
2023-05-03T15:37:22.361Z,100181.09
2023-05-03T15:39:52.531Z,100184.81
2023-05-03T15:42:22.530Z,100179.59
2023-05-03T15:44:53.655Z,100181.59
2023-05-03T15:47:28.279Z,100185.50
2023-05-03T15:50:07.049Z,100188.03
2023-05-03T15:52:46.360Z,100189.38
2023-05-03T15:55:17.468Z,100187.50
2023-05-03T15:57:48.964Z,100192.41
2023-05-03T16:00:23.144Z,100179.25
2023-05-03T16:03:01.843Z,100187.00
2023-05-03T16:05:35.932Z,100193.72
2023-05-03T16:08:20.098Z,100189.53
2023-05-03T16:10:51.459Z,100194.75
2023-05-03T16:13:20.158Z,100192.22
2023-05-03T16:15:52.532Z,100191.53
2023-05-03T16:18:23.142Z,100200.47
2023-05-03T16:20:59.583Z,100187.66
2023-05-03T16:23:42.693Z,100188.84
2023-05-03T16:26:19.541Z,100191.88
2023-05-03T16:29:04.956Z,100189.00
2023-05-03T16:31:34.065Z,100178.72
2023-05-03T16:34:05.181Z,100181.78
2023-05-03T16:36:34.408Z,100190.56
2023-05-03T16:39:05.893Z,100188.50
2023-05-03T16:41:34.580Z,100182.78
2023-05-03T16:44:08.227Z,100180.09
2023-05-03T16:46:39.657Z,100184.81
2023-05-03T16:49:12.807Z,100184.78
2023-05-03T16:51:47.469Z,100190.53
2023-05-03T16:54:20.874Z,100191.69
2023-05-03T16:56:57.991Z,100189.47
2023-05-03T16:59:43.705Z,100196.41
2023-05-03T17:02:15.784Z,100191.84
2023-05-03T17:04:44.608Z,100195.34
2023-05-03T17:07:19.366Z,100186.94
2023-05-03T17:10:07.265Z,100194.69
2023-05-03T17:12:38.130Z,100201.28
2023-05-03T17:15:21.303Z,100205.59
2023-05-03T17:17:52.423Z,100202.09
2023-05-03T17:20:23.199Z,100207.13
2023-05-03T17:22:51.609Z,100216.94
2023-05-03T17:25:27.024Z,100200.63
2023-05-03T17:27:56.893Z,100221.63
2023-05-03T17:30:35.779Z,100216.56
2023-05-03T17:33:08.048Z,100218.22
2023-05-03T17:35:42.205Z,100226.78
2023-05-03T17:38:10.571Z,100223.28
2023-05-03T17:40:44.395Z,100217.53
2023-05-03T17:43:17.552Z,100225.75
2023-05-03T17:45:55.274Z,100217.91
2023-05-03T17:48:27.163Z,100221.88
2023-05-03T17:51:00.142Z,100220.34
2023-05-03T17:53:32.019Z,100219.66
2023-05-03T17:56:08.409Z,100220.09
2023-05-03T17:58:41.419Z,100229.53
2023-05-03T18:01:11.484Z,100228.81
2023-05-03T18:03:55.556Z,100237.84
2023-05-03T18:06:38.441Z,100234.13
2023-05-03T18:09:16.127Z,100226.31
2023-05-03T18:11:56.474Z,100220.78
2023-05-03T18:14:26.383Z,100235.69
2023-05-03T18:16:58.814Z,100224.72
2023-05-03T18:19:29.400Z,100231.59
2023-05-03T18:21:58.172Z,100236.03
2023-05-03T18:24:32.226Z,100235.69
2023-05-03T18:27:07.120Z,100239.69
2023-05-03T18:29:44.664Z,100240.53
2023-05-03T18:32:25.658Z,100244.41
2023-05-03T18:35:07.640Z,100250.72
2023-05-03T18:37:38.966Z,100248.06
2023-05-03T18:40:25.907Z,100252.09
2023-05-03T18:43:04.705Z,100248.53
2023-05-03T18:45:43.400Z,100265.94
2023-05-03T18:48:16.247Z,100265.28
2023-05-03T18:50:55.951Z,100257.78
2023-05-03T18:53:30.682Z,100274.94
2023-05-03T18:56:03.666Z,100270.34
2023-05-03T18:58:39.048Z,100281.56
2023-05-03T19:01:17.657Z,100280.03
2023-05-03T19:03:55.796Z,100279.50
2023-05-03T19:06:31.099Z,100278.88
2023-05-03T19:09:04.899Z,100281.22
2023-05-03T19:11:37.422Z,100273.72
2023-05-03T19:14:11.886Z,100284.97
2023-05-03T19:16:42.647Z,100287.00
2023-05-03T19:19:23.549Z,100288.06
2023-05-03T19:22:03.463Z,100280.47
2023-05-03T19:24:37.134Z,100282.78
2023-05-03T19:27:09.130Z,100277.50
2023-05-03T19:29:53.655Z,100286.72
2023-05-03T19:32:29.061Z,100283.13
2023-05-03T19:34:58.041Z,100288.50
2023-05-03T19:37:30.689Z,100295.34
2023-05-03T19:40:06.781Z,100299.63
2023-05-03T19:42:38.604Z,100290.88
2023-05-03T19:45:25.641Z,100296.56
2023-05-03T19:47:56.340Z,100303.72
2023-05-03T19:50:39.742Z,100294.25
2023-05-03T19:53:11.636Z,100297.56
2023-05-03T19:55:58.426Z,100292.22
2023-05-03T19:58:32.082Z,100295.91
2023-05-03T20:01:16.131Z,100306.28
2023-05-03T20:03:55.596Z,100298.50
2023-05-03T20:06:32.319Z,100298.72
2023-05-03T20:09:01.090Z,100301.41
2023-05-03T20:11:44.361Z,100298.22
2023-05-03T20:14:16.497Z,100290.06
2023-05-03T20:16:56.110Z,100292.50
2023-05-03T20:19:33.065Z,100287.78
2023-05-03T20:22:10.886Z,100283.81
2023-05-03T20:24:55.583Z,100286.19
2023-05-03T20:27:29.548Z,100292.56
2023-05-03T20:30:06.416Z,100279.22
2023-05-03T20:32:42.317Z,100285.84
2023-05-03T20:35:15.697Z,100287.81
2023-05-03T20:37:44.083Z,100290.53
2023-05-03T20:40:14.779Z,100287.97
2023-05-03T20:42:43.444Z,100293.06
2023-05-03T20:45:13.905Z,100292.38
2023-05-03T20:47:57.381Z,100298.84
2023-05-03T20:50:38.551Z,100295.38
2023-05-03T20:53:14.526Z,100302.09
2023-05-03T20:55:44.383Z,100298.06
2023-05-03T20:58:18.208Z,100298.16
2023-05-03T21:00:57.686Z,100294.06
2023-05-03T21:03:43.988Z,100285.66
2023-05-03T21:06:16.177Z,100283.59
2023-05-03T21:08:47.965Z,100291.00
2023-05-03T21:11:22.762Z,100293.13
2023-05-03T21:14:06.702Z,100295.28
2023-05-03T21:16:38.484Z,100301.47
2023-05-03T21:19:24.819Z,100300.91
2023-05-03T21:21:59.937Z,100296.69
2023-05-03T21:24:37.953Z,100296.09
2023-05-03T21:27:15.776Z,100298.94
2023-05-03T21:29:49.702Z,100299.53
2023-05-03T21:32:19.154Z,100296.00
2023-05-03T21:34:55.572Z,100297.94
2023-05-03T21:37:26.786Z,100293.31
2023-05-03T21:40:02.545Z,100295.28
2023-05-03T21:42:34.520Z,100297.69
2023-05-03T21:45:05.451Z,100297.84
2023-05-03T21:47:36.240Z,100297.84
2023-05-03T21:50:09.744Z,100295.31
2023-05-03T21:52:52.186Z,100296.72
2023-05-03T21:55:24.231Z,100298.13
2023-05-03T21:57:53.494Z,100298.28
2023-05-03T22:00:25.524Z,100296.00
2023-05-03T22:02:57.017Z,100296.19
2023-05-03T22:05:31.551Z,100298.41
2023-05-03T22:08:03.301Z,100288.69
2023-05-03T22:10:34.656Z,100290.09
2023-05-03T22:13:02.858Z,100298.16
2023-05-03T22:15:34.921Z,100292.91
2023-05-03T22:18:09.721Z,100293.91
2023-05-03T22:20:41.721Z,100296.19
2023-05-03T22:23:09.994Z,100294.47
2023-05-03T22:25:41.619Z,100297.00
2023-05-03T22:28:12.687Z,100298.44
2023-05-03T22:30:49.797Z,100297.84
2023-05-03T22:33:18.039Z,100306.59
2023-05-03T22:35:52.322Z,100290.22
2023-05-03T22:38:21.321Z,100297.88
2023-05-03T22:40:49.441Z,100292.38
2023-05-03T22:43:17.805Z,100295.88
2023-05-03T22:45:49.698Z,100292.94
2023-05-03T22:48:23.538Z,100292.75
2023-05-03T22:50:53.637Z,100293.31
2023-05-03T22:53:22.430Z,100287.69
2023-05-03T22:55:59.545Z,100285.28
2023-05-03T22:58:30.930Z,100281.94
2023-05-03T23:01:07.493Z,100283.91
2023-05-03T23:03:37.738Z,100287.00
2023-05-03T23:06:27.168Z,100286.44
2023-05-03T23:08:55.490Z,100281.38
2023-05-03T23:11:24.826Z,100291.81
2023-05-03T23:13:55.844Z,100283.34
2023-05-03T23:16:26.299Z,100276.13
2023-05-03T23:18:58.499Z,100281.78
2023-05-03T23:21:32.523Z,100280.09
2023-05-03T23:24:01.869Z,100277.97
2023-05-03T23:26:31.893Z,100289.28
2023-05-03T23:29:05.078Z,100284.88
2023-05-03T23:31:40.215Z,100284.34
2023-05-03T23:34:09.088Z,100292.91
2023-05-03T23:36:40.635Z,100283.50
2023-05-03T23:39:11.065Z,100284.03
2023-05-03T23:41:45.352Z,100286.28
2023-05-03T23:44:16.096Z,100280.09
2023-05-03T23:46:47.481Z,100281.47
2023-05-03T23:49:24.866Z,100286.72
2023-05-03T23:52:11.240Z,100279.53
2023-05-03T23:54:55.891Z,100283.34
2023-05-03T23:57:26.743Z,100271.50
2023-05-03T23:59:55.499Z,100282.91
